Aviation Digital Data Service (ADDS)

Output produced by METARs form (1423 UTC 20 December 2014)
found at http://aviationweather.gov/adds/metars/
 
KRWI 201134Z 2012/2112 05007KT P6SM OVC120 
     FM201400 03009KT P6SM -RA SCT018 OVC080 
     FM201900 05006KT P6SM OVC070 
     FM210300 04004KT P6SM FEW060